Time;durP1;ratioP1;P1;durP2;ratioP2;P2;SDS_P1;SDS_P2;PMS_P1;PMS_P2;Temp;Humidity;BMP_temperature;BMP_pressure;BME280_temperature;BME280_humidity;BME280_pressure;Samples;Min_cycle;Max_cycle;Signal;HPM_P1;HPM_P2
2022/06/11 00:00:01;;;;;;;;;;;;;;;;;;5069099;28;19919;-88
2022/06/11 00:02:27;;;;;;;;;;;;;;;;;;5045952;28;19912;-85
2022/06/11 00:04:52;;;;;;;;;;;;;;;;;;5051074;28;19920;-89
2022/06/11 00:07:18;;;;;;;;;;;;;;;;;;5034435;28;19953;-87
2022/06/11 00:09:43;;;;;;;;;;;;;;;;;;5053374;28;19909;-87
2022/06/11 00:12:08;;;;;;;;;;;;;;;;;;5057300;28;19966;-86
2022/06/11 00:14:34;;;;;;;;;;;;;;;;;;5060462;28;19924;-86
2022/06/11 00:16:59;;;;;;;;;;;;;;;;;;5029048;28;19958;-87
2022/06/11 00:19:25;;;;;;;;;;;;;;;;;;5019235;28;20344;-78
2022/06/11 00:21:50;;;;;;;;;;;;;;;;;;5035369;28;19916;-79
2022/06/11 00:24:15;;;;;;;;;;;;;;;;;;5058455;28;20306;-79
2022/06/11 00:26:42;;;;;;;;;;;;;;;;;;5047165;28;19921;-79
2022/06/11 00:29:07;;;;;;;;;;;;;;;;;;5065661;28;20367;-78
2022/06/11 00:31:32;;;;;;;;;;;;;;;;;;5039288;28;19935;-78
2022/06/11 00:33:58;;;;;;;;;;;;;;;;;;5043231;28;20010;-79
2022/06/11 00:36:23;;;;;;;;;;;;;;;;;;5059493;28;20249;-79
2022/06/11 00:38:49;;;;;;;;;;;;;;;;;;5045120;28;20291;-79
2022/06/11 00:41:14;;;;;;;;;;;;;;;;;;5031516;28;20291;-78
2022/06/11 00:43:39;;;;;;;;;;;;;;;;;;5038135;28;20090;-79
2022/06/11 00:46:05;;;;;;;;;;;;;;;;;;5071376;28;19919;-78
2022/06/11 00:48:30;;;;;;;;;;;;;;;;;;5052670;28;19923;-79
2022/06/11 00:50:56;;;;;;;;;;;;;;;;;;5030799;28;19916;-78
2022/06/11 00:53:21;;;;;;;;;;;;;;;;;;5023944;28;19944;-80
2022/06/11 00:55:47;;;;;;;;;;;;;;;;;;5035274;28;20004;-82
2022/06/11 00:58:12;;;;;;;;;;;;;;;;;;5038581;28;19928;-78
2022/06/11 01:00:41;;;;;;;;;;;;;;;;;;5008098;28;20406;-80
2022/06/11 01:03:06;;;;;;;;;;;;;;;;;;5072372;28;19916;-80
2022/06/11 01:05:32;;;;;;;;;;;;;;;;;;5056326;28;19936;-79
2022/06/11 01:07:57;;;;;;;;;;;;;;;;;;5040893;28;19913;-80
2022/06/11 01:10:23;;;;;;;;;;;;;;;;;;5047963;28;20034;-79
2022/06/11 01:12:48;;;;;;;;;;;;;;;;;;5058616;28;20298;-79
2022/06/11 01:15:14;;;;;;;;;;;;;;;;;;5063534;28;19915;-79
2022/06/11 01:17:40;;;;;;;;;;;;;;;;;;5055082;28;20302;-78
2022/06/11 01:20:06;;;;;;;;;;;;;;;;;;5045296;28;19912;-80
2022/06/11 01:22:31;;;;;;;;;;;;;;;;;;5070519;28;19920;-79
2022/06/11 01:24:57;;;;;;;;;;;;;;;;;;5041200;28;19916;-77
2022/06/11 01:27:23;;;;;;;;;;;;;;;;;;5053120;28;19919;-78
2022/06/11 01:29:48;;;;;;;;;;;;;;;;;;5062066;28;19913;-77
2022/06/11 01:32:14;;;;;;;;;;;;;;;;;;5044123;28;20327;-78
2022/06/11 01:34:39;;;;;;;;;;;;;;;;;;5039209;28;19913;-78
2022/06/11 01:37:05;;;;;;;;;;;;;;;;;;5032255;28;19913;-80
2022/06/11 01:39:30;;;;;;;;;;;;;;;;;;5043170;28;19938;-79
2022/06/11 01:41:56;;;;;;;;;;;;;;;;;;5054474;28;19934;-78
2022/06/11 01:44:21;;;;;;;;;;;;;;;;;;5034705;28;20382;-77
2022/06/11 01:46:46;;;;;;;;;;;;;;;;;;5054525;28;19958;-78
2022/06/11 01:49:12;;;;;;;;;;;;;;;;;;5044922;28;19912;-78
2022/06/11 01:51:37;;;;;;;;;;;;;;;;;;5056035;28;19913;-79
2022/06/11 01:54:02;;;;;;;;;;;;;;;;;;5068686;28;19919;-80
2022/06/11 01:56:28;;;;;;;;;;;;;;;;;;5015560;28;20287;-80
2022/06/11 01:58:53;;;;;;;;;;;;;;;;;;5066629;28;19959;-79
2022/06/11 02:01:19;;;;;;;;;;;;;;;;;;5066864;28;20430;-79
2022/06/11 02:03:44;;;;;;;;;;;;;;;;;;5041085;28;19919;-78
2022/06/11 02:06:10;;;;;;;;;;;;;;;;;;5045421;28;20346;-80
2022/06/11 02:08:35;;;;;;;;;;;;;;;;;;5060229;28;19934;-82
2022/06/11 02:11:00;;;;;;;;;;;;;;;;;;5060252;28;20322;-80
2022/06/11 02:13:26;;;;;;;;;;;;;;;;;;5044983;28;19913;-79
2022/06/11 02:15:51;;;;;;;;;;;;;;;;;;5002371;28;20311;-80
2022/06/11 02:18:18;;;;;;;;;;;;;;;;;;5047316;28;20363;-78
2022/06/11 02:20:43;;;;;;;;;;;;;;;;;;5026873;28;19944;-79
2022/06/11 02:23:09;;;;;;;;;;;;;;;;;;5049283;28;19912;-79
2022/06/11 02:25:34;;;;;;;;;;;;;;;;;;5025152;28;20015;-80
2022/06/11 02:28:00;;;;;;;;;;;;;;;;;;5067628;28;20052;-76
2022/06/11 02:30:25;;;;;;;;;;;;;;;;;;5062228;28;19919;-77
2022/06/11 02:32:50;;;;;;;;;;;;;;;;;;5065746;28;20442;-77
2022/06/11 02:35:16;;;;;;;;;;;;;;;;;;5061837;28;20008;-77
2022/06/11 02:37:41;;;;;;;;;;;;;;;;;;5072528;28;20268;-81
2022/06/11 02:40:07;;;;;;;;;;;;;;;;;;5060298;28;20407;-79
2022/06/11 02:42:32;;;;;;;;;;;;;;;;;;5050671;28;20012;-80
2022/06/11 02:44:57;;;;;;;;;;;;;;;;;;5063550;28;20013;-79
2022/06/11 02:47:23;;;;;;;;;;;;;;;;;;5036160;28;20016;-79
2022/06/11 02:49:48;;;;;;;;;;;;;;;;;;5065694;28;19912;-75
2022/06/11 02:52:14;;;;;;;;;;;;;;;;;;5060114;28;19919;-79
2022/06/11 02:54:39;;;;;;;;;;;;;;;;;;5049139;28;19919;-78
2022/06/11 02:57:04;;;;;;;;;;;;;;;;;;5049075;28;19913;-78
2022/06/11 02:59:30;;;;;;;;;;;;;;;;;;5050614;28;20361;-76
2022/06/11 03:01:56;;;;;;;;;;;;;;;;;;5068959;28;19917;-78
2022/06/11 03:04:21;;;;;;;;;;;;;;;;;;5020852;28;19913;-76
2022/06/11 03:06:46;;;;;;;;;;;;;;;;;;5066429;28;19966;-79
2022/06/11 03:09:12;;;;;;;;;;;;;;;;;;5034629;28;19913;-78
2022/06/11 03:11:37;;;;;;;;;;;;;;;;;;5076379;28;19917;-78
2022/06/11 03:14:02;;;;;;;;;;;;;;;;;;5056841;28;19908;-79
2022/06/11 03:16:28;;;;;;;;;;;;;;;;;;5060859;28;19913;-79
2022/06/11 03:18:53;;;;;;;;;;;;;;;;;;5020767;28;19991;-77
2022/06/11 03:21:18;;;;;;;;;;;;;;;;;;5070204;28;19920;-77
2022/06/11 03:23:44;;;;;;;;;;;;;;;;;;5071004;28;19913;-78
2022/06/11 03:26:09;;;;;;;;;;;;;;;;;;5055096;28;20004;-82
2022/06/11 03:28:35;;;;;;;;;;;;;;;;;;5069088;28;19919;-77
2022/06/11 03:31:03;;;;;;;;;;;;;;;;;;5066235;28;20552;-81
2022/06/11 03:33:28;;;;;;;;;;;;;;;;;;5024920;28;20290;-80
2022/06/11 03:35:53;;;;;;;;;;;;;;;;;;5057575;28;19920;-79
2022/06/11 03:38:19;;;;;;;;;;;;;;;;;;5046143;28;20007;-79
2022/06/11 03:40:44;;;;;;;;;;;;;;;;;;5076158;28;19912;-78
2022/06/11 03:43:09;;;;;;;;;;;;;;;;;;5034173;28;19912;-80
2022/06/11 03:45:35;;;;;;;;;;;;;;;;;;5062623;28;19919;-78
2022/06/11 03:48:00;;;;;;;;;;;;;;;;;;5055046;28;20005;-76
2022/06/11 03:50:26;;;;;;;;;;;;;;;;;;5043583;28;19916;-77
2022/06/11 03:52:51;;;;;;;;;;;;;;;;;;5066741;28;19913;-77
2022/06/11 03:55:16;;;;;;;;;;;;;;;;;;5052554;28;19916;-79
2022/06/11 03:57:42;;;;;;;;;;;;;;;;;;5069224;28;19961;-80
2022/06/11 04:00:07;;;;;;;;;;;;;;;;;;5029811;28;19913;-79
2022/06/11 04:02:33;;;;;;;;;;;;;;;;;;5032862;28;19909;-77
2022/06/11 04:04:59;;;;;;;;;;;;;;;;;;5029873;28;20012;-78
2022/06/11 04:07:24;;;;;;;;;;;;;;;;;;5025214;28;19912;-79
2022/06/11 04:09:49;;;;;;;;;;;;;;;;;;5035699;28;19913;-78
2022/06/11 04:12:15;;;;;;;;;;;;;;;;;;5058679;28;19912;-78
2022/06/11 04:14:40;;;;;;;;;;;;;;;;;;5067374;28;20328;-80
2022/06/11 04:17:06;;;;;;;;;;;;;;;;;;5060536;28;20510;-80
2022/06/11 04:19:31;;;;;;;;;;;;;;;;;;5049599;28;19913;-80
2022/06/11 04:21:57;;;;;;;;;;;;;;;;;;5056388;28;19923;-79
2022/06/11 04:24:22;;;;;;;;;;;;;;;;;;5049295;28;20484;-80
2022/06/11 04:26:47;;;;;;;;;;;;;;;;;;5062203;28;19917;-80
2022/06/11 04:29:13;;;;;;;;;;;;;;;;;;5042458;28;19912;-82
2022/06/11 04:31:38;;;;;;;;;;;;;;;;;;5058860;28;20380;-79
2022/06/11 04:34:03;;;;;;;;;;;;;;;;;;5049089;28;19913;-81
2022/06/11 04:36:29;;;;;;;;;;;;;;;;;;5025277;28;19912;-80
2022/06/11 04:38:55;;;;;;;;;;;;;;;;;;5070982;28;19932;-81
2022/06/11 04:41:20;;;;;;;;;;;;;;;;;;5082837;28;19901;-79
2022/06/11 04:43:45;;;;;;;;;;;;;;;;;;5058520;28;19923;-78
2022/06/11 04:46:11;;;;;;;;;;;;;;;;;;5070830;28;19923;-78
2022/06/11 04:48:36;;;;;;;;;;;;;;;;;;5045020;28;19966;-78
2022/06/11 04:51:02;;;;;;;;;;;;;;;;;;5074678;28;19931;-78
2022/06/11 04:53:27;;;;;;;;;;;;;;;;;;5056282;28;19916;-78
2022/06/11 04:55:52;;;;;;;;;;;;;;;;;;5063381;28;19935;-77
2022/06/11 04:58:18;;;;;;;;;;;;;;;;;;5058065;28;19967;-78
2022/06/11 05:00:44;;;;;;;;;;;;;;;;;;5049189;28;20432;-77
2022/06/11 05:03:09;;;;;;;;;;;;;;;;;;5059324;28;19912;-78
2022/06/11 05:05:35;;;;;;;;;;;;;;;;;;5057430;28;19912;-78
2022/06/11 05:08:01;;;;;;;;;;;;;;;;;;5064728;28;19929;-77
2022/06/11 05:10:26;;;;;;;;;;;;;;;;;;5041410;28;19916;-80
2022/06/11 05:12:52;;;;;;;;;;;;;;;;;;5058075;28;20452;-80
2022/06/11 05:15:17;;;;;;;;;;;;;;;;;;5061454;28;20337;-79
2022/06/11 05:17:42;;;;;;;;;;;;;;;;;;5037751;28;19924;-78
2022/06/11 05:20:09;;;;;;;;;;;;;;;;;;5050528;28;19908;-77
2022/06/11 05:22:34;;;;;;;;;;;;;;;;;;5040919;28;19913;-76
2022/06/11 05:25:00;;;;;;;;;;;;;;;;;;5043843;28;20117;-78
2022/06/11 05:27:25;;;;;;;;;;;;;;;;;;5039888;28;19912;-79
2022/06/11 05:29:53;;;;;;;;;;;;;;;;;;5053188;28;19913;-80
2022/06/11 05:32:19;;;;;;;;;;;;;;;;;;5027889;28;19912;-79
2022/06/11 05:34:44;;;;;;;;;;;;;;;;;;5055069;28;19912;-80
2022/06/11 05:37:10;;;;;;;;;;;;;;;;;;5041785;28;20295;-78
2022/06/11 05:39:35;;;;;;;;;;;;;;;;;;5064765;28;19916;-79
2022/06/11 05:42:01;;;;;;;;;;;;;;;;;;5021895;28;19913;-81
2022/06/11 05:44:27;;;;;;;;;;;;;;;;;;5014956;28;19920;-80
2022/06/11 05:46:52;;;;;;;;;;;;;;;;;;5061946;28;19919;-79
2022/06/11 05:49:17;;;;;;;;;;;;;;;;;;5058442;28;19909;-80
2022/06/11 05:51:43;;;;;;;;;;;;;;;;;;5054187;28;20007;-79
2022/06/11 05:54:08;;;;;;;;;;;;;;;;;;5071535;28;19917;-80
2022/06/11 05:56:33;;;;;;;;;;;;;;;;;;5040839;28;19913;-79
2022/06/11 05:58:59;;;;;;;;;;;;;;;;;;5049202;28;19922;-79
2022/06/11 06:01:24;;;;;;;;;;;;;;;;;;5048025;28;19919;-78
2022/06/11 06:03:49;;;;;;;;;;;;;;;;;;5041136;28;20387;-78
2022/06/11 06:06:16;;;;;;;;;;;;;;;;;;5070397;28;19917;-78
2022/06/11 06:08:41;;;;;;;;;;;;;;;;;;5063787;28;19923;-81
2022/06/11 06:11:07;;;;;;;;;;;;;;;;;;5074110;28;20433;-78
2022/06/11 06:13:48;;;;;;;;;;;;;;;;;;5061007;28;20003;-77
2022/06/11 06:16:13;;;;;;;;;;;;;;;;;;5042059;28;20345;-78
2022/06/11 06:18:39;;;;;;;;;;;;;;;;;;5073144;28;19913;-77
2022/06/11 06:21:04;;;;;;;;;;;;;;;;;;5048983;28;19913;-78
2022/06/11 06:23:30;;;;;;;;;;;;;;;;;;5042242;28;20003;-78
2022/06/11 06:25:56;;;;;;;;;;;;;;;;;;5073724;28;19916;-77
2022/06/11 06:28:21;;;;;;;;;;;;;;;;;;5051060;28;20031;-78
2022/06/11 06:30:47;;;;;;;;;;;;;;;;;;5069161;28;19974;-78
2022/06/11 06:33:12;;;;;;;;;;;;;;;;;;5068673;28;19998;-79
2022/06/11 06:35:37;;;;;;;;;;;;;;;;;;5068310;28;19913;-78
2022/06/11 06:38:03;;;;;;;;;;;;;;;;;;5058055;28;20337;-80
2022/06/11 06:40:29;;;;;;;;;;;;;;;;;;5068041;28;19919;-78
2022/06/11 06:42:54;;;;;;;;;;;;;;;;;;5064771;28;19912;-80
2022/06/11 06:45:20;;;;;;;;;;;;;;;;;;5065037;28;19912;-80
2022/06/11 06:47:45;;;;;;;;;;;;;;;;;;5053218;28;19916;-77
2022/06/11 06:50:11;;;;;;;;;;;;;;;;;;5054714;28;20363;-79
2022/06/11 06:52:36;;;;;;;;;;;;;;;;;;5039793;28;20287;-78
2022/06/11 06:55:01;;;;;;;;;;;;;;;;;;5063171;28;20046;-79
2022/06/11 06:57:27;;;;;;;;;;;;;;;;;;5069003;28;19913;-79
2022/06/11 06:59:52;;;;;;;;;;;;;;;;;;5054491;28;20325;-80
2022/06/11 07:02:18;;;;;;;;;;;;;;;;;;5046828;28;19919;-79
2022/06/11 07:04:43;;;;;;;;;;;;;;;;;;5065512;28;19921;-78
2022/06/11 07:07:10;;;;;;;;;;;;;;;;;;5048285;28;19920;-77
2022/06/11 07:09:35;;;;;;;;;;;;;;;;;;5073372;28;19912;-79
2022/06/11 07:12:01;;;;;;;;;;;;;;;;;;5039269;28;19983;-79
2022/06/11 07:14:26;;;;;;;;;;;;;;;;;;5049656;28;19953;-78
2022/06/11 07:16:52;;;;;;;;;;;;;;;;;;5059417;28;19912;-83
2022/06/11 07:19:17;;;;;;;;;;;;;;;;;;5040306;28;20329;-81
2022/06/11 07:21:42;;;;;;;;;;;;;;;;;;5049480;28;19979;-84
2022/06/11 07:24:08;;;;;;;;;;;;;;;;;;5057762;28;19912;-87
2022/06/11 07:26:34;;;;;;;;;;;;;;;;;;5056215;28;19920;-85
2022/06/11 07:28:59;;;;;;;;;;;;;;;;;;5065099;28;19962;-82
2022/06/11 07:31:27;;;;;;;;;;;;;;;;;;5058733;28;19984;-81
2022/06/11 07:33:53;;;;;;;;;;;;;;;;;;5039533;28;19979;-81
2022/06/11 07:36:18;;;;;;;;;;;;;;;;;;5050482;28;19913;-84
2022/06/11 07:38:44;;;;;;;;;;;;;;;;;;5044362;28;19917;-80
2022/06/11 07:41:09;;;;;;;;;;;;;;;;;;5061221;28;19936;-83
2022/06/11 07:43:34;;;;;;;;;;;;;;;;;;5069252;28;19916;-80
2022/06/11 07:46:00;;;;;;;;;;;;;;;;;;5022606;28;20023;-83
2022/06/11 07:48:34;;;;;;;;;;;;;;;;;;5052122;28;20386;-81
2022/06/11 07:51:00;;;;;;;;;;;;;;;;;;5024414;28;19920;-80
2022/06/11 07:53:32;;;;;;;;;;;;;;;;;;5018333;28;20308;-81
2022/06/11 07:55:57;;;;;;;;;;;;;;;;;;5042524;28;19927;-82
2022/06/11 07:58:22;;;;;;;;;;;;;;;;;;5058966;28;19917;-83
2022/06/11 08:00:48;;;;;;;;;;;;;;;;;;5049365;28;19967;-82
2022/06/11 08:03:13;;;;;;;;;;;;;;;;;;5045566;28;19927;-79
2022/06/11 08:05:39;;;;;;;;;;;;;;;;;;5025477;28;19908;-79
2022/06/11 08:08:04;;;;;;;;;;;;;;;;;;5058767;28;20355;-82
2022/06/11 08:10:30;;;;;;;;;;;;;;;;;;5026009;28;19912;-81
2022/06/11 08:12:55;;;;;;;;;;;;;;;;;;5046952;28;19912;-86
2022/06/11 08:15:21;;;;;;;;;;;;;;;;;;5073353;28;20314;-82
2022/06/11 08:17:46;;;;;;;;;;;;;;;;;;5023897;28;19927;-82
2022/06/11 08:20:11;;;;;;;;;;;;;;;;;;5057782;28;20383;-80
2022/06/11 08:22:37;;;;;;;;;;;;;;;;;;5065476;28;19952;-81
2022/06/11 08:25:02;;;;;;;;;;;;;;;;;;5055407;28;20004;-84
2022/06/11 08:27:28;;;;;;;;;;;;;;;;;;5046700;28;19956;-85
2022/06/11 08:29:53;;;;;;;;;;;;;;;;;;5069885;28;20363;-82
2022/06/11 08:32:19;;;;;;;;;;;;;;;;;;5040551;28;19923;-83
2022/06/11 08:34:46;;;;;;;;;;;;;;;;;;5049246;28;19920;-82
2022/06/11 08:37:11;;;;;;;;;;;;;;;;;;5027112;28;20057;-84
2022/06/11 08:39:37;;;;;;;;;;;;;;;;;;5033615;28;19995;-83
2022/06/11 08:42:02;;;;;;;;;;;;;;;;;;5039993;28;20005;-83
2022/06/11 08:44:27;;;;;;;;;;;;;;;;;;5067789;28;19912;-82
2022/06/11 08:46:56;;;;;;;;;;;;;;;;;;5031351;28;19912;-82
2022/06/11 08:49:21;;;;;;;;;;;;;;;;;;5027706;28;20379;-81
2022/06/11 08:51:47;;;;;;;;;;;;;;;;;;5053975;28;19920;-82
2022/06/11 08:54:12;;;;;;;;;;;;;;;;;;5029042;28;20391;-84
2022/06/11 08:56:38;;;;;;;;;;;;;;;;;;5065006;28;19912;-82
2022/06/11 08:59:03;;;;;;;;;;;;;;;;;;5044513;28;20426;-84
2022/06/11 09:01:35;;;;;;;;;;;;;;;;;;5044107;28;19998;-84
2022/06/11 09:04:00;;;;;;;;;;;;;;;;;;5024405;28;19964;-83
2022/06/11 09:06:26;;;;;;;;;;;;;;;;;;5046524;28;19948;-82
2022/06/11 09:08:55;;;;;;;;;;;;;;;;;;5047653;28;19912;-82
2022/06/11 09:11:20;;;;;;;;;;;;;;;;;;5060966;28;19917;-84
2022/06/11 09:13:46;;;;;;;;;;;;;;;;;;5043961;28;20327;-83
2022/06/11 09:16:12;;;;;;;;;;;;;;;;;;5008111;28;19912;-82
2022/06/11 09:18:37;;;;;;;;;;;;;;;;;;5047609;28;19917;-84
2022/06/11 09:21:02;;;;;;;;;;;;;;;;;;5064511;28;20028;-82
2022/06/11 09:23:28;;;;;;;;;;;;;;;;;;5046695;28;20401;-83
2022/06/11 09:25:53;;;;;;;;;;;;;;;;;;5058980;28;20003;-83
2022/06/11 09:28:20;;;;;;;;;;;;;;;;;;5058086;28;19913;-83
2022/06/11 09:30:47;;;;;;;;;;;;;;;;;;5040089;28;19963;-82
2022/06/11 09:33:12;;;;;;;;;;;;;;;;;;5069307;28;19988;-84
2022/06/11 09:35:39;;;;;;;;;;;;;;;;;;5053593;28;19912;-83
2022/06/11 09:38:04;;;;;;;;;;;;;;;;;;5036476;28;20016;-84
2022/06/11 09:40:30;;;;;;;;;;;;;;;;;;5036738;28;19916;-83
2022/06/11 09:42:56;;;;;;;;;;;;;;;;;;5045442;28;19996;-82
2022/06/11 09:45:22;;;;;;;;;;;;;;;;;;5057373;28;19913;-83
2022/06/11 09:47:47;;;;;;;;;;;;;;;;;;5049756;28;19967;-83
2022/06/11 09:50:13;;;;;;;;;;;;;;;;;;5053414;28;19916;-83
2022/06/11 09:52:38;;;;;;;;;;;;;;;;;;5038315;28;20006;-83
2022/06/11 09:55:04;;;;;;;;;;;;;;;;;;5024414;28;20221;-84
2022/06/11 09:57:30;;;;;;;;;;;;;;;;;;5007899;28;20105;-82
2022/06/11 09:59:56;;;;;;;;;;;;;;;;;;5069929;28;19919;-83
2022/06/11 10:02:33;;;;;;;;;;;;;;;;;;5054894;28;19920;-82
2022/06/11 10:04:58;;;;;;;;;;;;;;;;;;5024160;28;19913;-83
2022/06/11 10:07:24;;;;;;;;;;;;;;;;;;5042466;28;19925;-82
2022/06/11 10:09:50;;;;;;;;;;;;;;;;;;5032522;28;20007;-83
2022/06/11 10:12:15;;;;;;;;;;;;;;;;;;5049721;28;20402;-83
2022/06/11 10:14:43;;;;;;;;;;;;;;;;;;5042314;28;19920;-83
2022/06/11 10:17:09;;;;;;;;;;;;;;;;;;5068216;28;19912;-83
2022/06/11 10:19:35;;;;;;;;;;;;;;;;;;5067772;28;19922;-82
2022/06/11 10:22:00;;;;;;;;;;;;;;;;;;5030418;28;20296;-82
2022/06/11 10:24:26;;;;;;;;;;;;;;;;;;5034813;28;20424;-81
2022/06/11 10:26:51;;;;;;;;;;;;;;;;;;5068559;28;20429;-82
2022/06/11 10:29:17;;;;;;;;;;;;;;;;;;5055244;28;20449;-81
2022/06/11 10:31:42;;;;;;;;;;;;;;;;;;5058814;28;19912;-82
2022/06/11 10:34:07;;;;;;;;;;;;;;;;;;5067407;28;19913;-82
2022/06/11 10:36:33;;;;;;;;;;;;;;;;;;5066892;28;20295;-82
2022/06/11 10:38:59;;;;;;;;;;;;;;;;;;5053006;28;19959;-82
2022/06/11 10:41:25;;;;;;;;;;;;;;;;;;5045678;28;19994;-82
2022/06/11 10:43:50;;;;;;;;;;;;;;;;;;5070499;28;19913;-84
2022/06/11 10:46:15;;;;;;;;;;;;;;;;;;5053794;28;20336;-82
2022/06/11 10:48:41;;;;;;;;;;;;;;;;;;5068986;28;19917;-82
2022/06/11 10:51:06;;;;;;;;;;;;;;;;;;5044248;28;19916;-83
2022/06/11 10:53:31;;;;;;;;;;;;;;;;;;5057299;28;20376;-81
2022/06/11 10:55:57;;;;;;;;;;;;;;;;;;5037707;28;19912;-82
2022/06/11 10:58:22;;;;;;;;;;;;;;;;;;5023336;28;19978;-83
2022/06/11 11:00:50;;;;;;;;;;;;;;;;;;5072271;28;20371;-82
2022/06/11 11:03:16;;;;;;;;;;;;;;;;;;5069828;28;19923;-82
2022/06/11 11:05:41;;;;;;;;;;;;;;;;;;5052940;28;19912;-84
2022/06/11 11:08:06;;;;;;;;;;;;;;;;;;5050014;28;19916;-84
2022/06/11 11:10:34;;;;;;;;;;;;;;;;;;5053235;28;19913;-80
2022/06/11 11:13:00;;;;;;;;;;;;;;;;;;5069403;28;19920;-85
2022/06/11 11:15:25;;;;;;;;;;;;;;;;;;5069571;28;19919;-84
2022/06/11 11:17:51;;;;;;;;;;;;;;;;;;5035320;28;19917;-83
2022/06/11 11:20:35;;;;;;;;;;;;;;;;;;5068837;28;19923;-83
2022/06/11 11:23:03;;;;;;;;;;;;;;;;;;5069144;28;19962;-84
2022/06/11 11:25:29;;;;;;;;;;;;;;;;;;5052735;28;20267;-85
2022/06/11 11:27:57;;;;;;;;;;;;;;;;;;5068566;28;19916;-82
2022/06/11 11:30:23;;;;;;;;;;;;;;;;;;5052410;28;19949;-83
2022/06/11 11:32:48;;;;;;;;;;;;;;;;;;5039453;28;19963;-84
2022/06/11 11:35:14;;;;;;;;;;;;;;;;;;5063829;28;19920;-85
2022/06/11 11:37:39;;;;;;;;;;;;;;;;;;5038567;28;19962;-85
2022/06/11 11:40:04;;;;;;;;;;;;;;;;;;5042306;28;19943;-84
2022/06/11 11:42:30;;;;;;;;;;;;;;;;;;5042845;28;19912;-83
2022/06/11 11:44:58;;;;;;;;;;;;;;;;;;5055030;28;20338;-85
2022/06/11 11:47:24;;;;;;;;;;;;;;;;;;5036671;28;19920;-84
2022/06/11 11:49:49;;;;;;;;;;;;;;;;;;5070839;22;19975;-77
2022/06/11 11:52:15;;;;;;;;;;;;;;;;;;5031299;28;20012;-78
2022/06/11 11:54:40;;;;;;;;;;;;;;;;;;5032296;28;19916;-77
2022/06/11 11:57:06;;;;;;;;;;;;;;;;;;5022409;28;19932;-78
2022/06/11 11:59:31;;;;;;;;;;;;;;;;;;5041059;28;19916;-76
2022/06/11 12:01:56;;;;;;;;;;;;;;;;;;5042370;28;19912;-78
2022/06/11 12:04:22;;;;;;;;;;;;;;;;;;5008162;28;20277;-78
2022/06/11 12:06:47;;;;;;;;;;;;;;;;;;5011083;28;19939;-77
2022/06/11 12:09:13;;;;;;;;;;;;;;;;;;5028276;28;20372;-78
2022/06/11 12:11:39;;;;;;;;;;;;;;;;;;5044801;28;19959;-78
2022/06/11 12:14:04;;;;;;;;;;;;;;;;;;5024469;28;19994;-77
2022/06/11 12:16:30;;;;;;;;;;;;;;;;;;5006979;28;20411;-78
2022/06/11 12:18:55;;;;;;;;;;;;;;;;;;5035145;28;19917;-78
2022/06/11 12:21:21;;;;;;;;;;;;;;;;;;5015535;28;20327;-77
2022/06/11 12:23:46;;;;;;;;;;;;;;;;;;5002716;28;19917;-77
2022/06/11 12:26:13;;;;;;;;;;;;;;;;;;5018346;28;19957;-76
2022/06/11 12:28:38;;;;;;;;;;;;;;;;;;5017969;28;19967;-76
2022/06/11 12:31:04;;;;;;;;;;;;;;;;;;5017721;28;19913;-78
2022/06/11 12:33:38;;;;;;;;;;;;;;;;;;5020187;28;19913;-75
2022/06/11 12:36:07;;;;;;;;;;;;;;;;;;5012015;28;19935;-78
2022/06/11 12:38:35;;;;;;;;;;;;;;;;;;5005984;28;19962;-77
2022/06/11 12:41:01;;;;;;;;;;;;;;;;;;5020695;28;19913;-78
2022/06/11 12:43:26;;;;;;;;;;;;;;;;;;5004030;28;19925;-78
2022/06/11 12:45:52;;;;;;;;;;;;;;;;;;5020237;28;20330;-77
2022/06/11 12:48:17;;;;;;;;;;;;;;;;;;5023165;28;19920;-77
2022/06/11 12:50:44;;;;;;;;;;;;;;;;;;5016477;28;20396;-78
2022/06/11 12:53:10;;;;;;;;;;;;;;;;;;4978569;28;20400;-77
2022/06/11 12:55:36;;;;;;;;;;;;;;;;;;5011833;28;19909;-78
2022/06/11 12:58:01;;;;;;;;;;;;;;;;;;5008737;28;20376;-79
2022/06/11 13:00:27;;;;;;;;;;;;;;;;;;4990955;28;20462;-78
2022/06/11 13:02:52;;;;;;;;;;;;;;;;;;5023746;28;19924;-79
2022/06/11 13:05:17;;;;;;;;;;;;;;;;;;5034016;28;19975;-77
2022/06/11 13:07:43;;;;;;;;;;;;;;;;;;5020415;28;19913;-79
2022/06/11 13:10:08;;;;;;;;;;;;;;;;;;5017076;28;19923;-77
2022/06/11 13:12:34;;;;;;;;;;;;;;;;;;5034788;28;20241;-77
2022/06/11 13:14:59;;;;;;;;;;;;;;;;;;5027737;28;20299;-77
2022/06/11 13:17:24;;;;;;;;;;;;;;;;;;5015495;28;19913;-77
2022/06/11 13:19:50;;;;;;;;;;;;;;;;;;5036407;28;19916;-76
2022/06/11 13:22:19;;;;;;;;;;;;;;;;;;5033791;28;20358;-77
2022/06/11 13:24:44;;;;;;;;;;;;;;;;;;5034534;28;19913;-77
2022/06/11 13:27:09;;;;;;;;;;;;;;;;;;5016906;28;20402;-76
2022/06/11 13:29:35;;;;;;;;;;;;;;;;;;5019145;28;20428;-76
2022/06/11 13:32:00;;;;;;;;;;;;;;;;;;5035290;28;19914;-77
2022/06/11 13:34:26;;;;;;;;;;;;;;;;;;5014734;28;19919;-76
2022/06/11 13:36:52;;;;;;;;;;;;;;;;;;5016420;28;19917;-78
2022/06/11 13:39:17;;;;;;;;;;;;;;;;;;5026749;28;20012;-76
2022/06/11 13:41:43;;;;;;;;;;;;;;;;;;5045676;28;19945;-76
2022/06/11 13:44:10;;;;;;;;;;;;;;;;;;5030464;28;19982;-75
2022/06/11 13:46:35;;;;;;;;;;;;;;;;;;5047367;28;19943;-77
2022/06/11 13:49:01;;;;;;;;;;;;;;;;;;5047004;28;19970;-76
2022/06/11 13:51:27;;;;;;;;;;;;;;;;;;5029578;28;20279;-77
2022/06/11 13:56:37;;;;;;;;;;;;;;;;;;5027554;28;19960;-76
2022/06/11 13:59:02;;;;;;;;;;;;;;;;;;5034046;28;19953;-77
2022/06/11 14:01:28;;;;;;;;;;;;;;;;;;5017664;28;19924;-77
2022/06/11 14:03:53;;;;;;;;;;;;;;;;;;5036232;28;20364;-77
2022/06/11 14:06:22;;;;;;;;;;;;;;;;;;5034697;28;20480;-77
2022/06/11 14:08:56;;;;;;;;;;;;;;;;;;5017263;28;19941;-77
2022/06/11 14:11:21;;;;;;;;;;;;;;;;;;5035685;28;20385;-76
2022/06/11 14:13:47;;;;;;;;;;;;;;;;;;5022631;28;19909;-76
2022/06/11 14:16:12;;;;;;;;;;;;;;;;;;5019977;28;19964;-77
2022/06/11 14:18:38;;;;;;;;;;;;;;;;;;5020477;28;20011;-77
2022/06/11 14:21:04;;;;;;;;;;;;;;;;;;5020067;28;20381;-76
2022/06/11 14:23:32;;;;;;;;;;;;;;;;;;5021758;28;19923;-77
2022/06/11 14:25:59;;;;;;;;;;;;;;;;;;5039202;28;19913;-77
2022/06/11 14:28:25;;;;;;;;;;;;;;;;;;5020416;28;20003;-77
2022/06/11 14:30:53;;;;;;;;;;;;;;;;;;5020467;28;20004;-76
2022/06/11 14:33:19;;;;;;;;;;;;;;;;;;5037903;28;20364;-77
2022/06/11 14:35:45;;;;;;;;;;;;;;;;;;5031431;28;19919;-77
2022/06/11 14:38:10;;;;;;;;;;;;;;;;;;5040271;28;19917;-78
2022/06/11 14:40:36;;;;;;;;;;;;;;;;;;5051583;28;20291;-77
2022/06/11 14:43:01;;;;;;;;;;;;;;;;;;5051393;28;19917;-77
2022/06/11 14:45:26;;;;;;;;;;;;;;;;;;5032622;28;20431;-75
2022/06/11 14:47:52;;;;;;;;;;;;;;;;;;5049736;28;19913;-77
2022/06/11 14:50:17;;;;;;;;;;;;;;;;;;5033432;28;19917;-76
2022/06/11 14:52:42;;;;;;;;;;;;;;;;;;5051616;28;19986;-77
2022/06/11 14:55:10;;;;;;;;;;;;;;;;;;5051503;28;20047;-77
2022/06/11 14:57:36;;;;;;;;;;;;;;;;;;5031205;28;19945;-77
2022/06/11 15:00:02;;;;;;;;;;;;;;;;;;5031622;28;19913;-78
2022/06/11 15:02:27;;;;;;;;;;;;;;;;;;5043450;28;19919;-76
2022/06/11 15:04:53;;;;;;;;;;;;;;;;;;5047603;28;19913;-77
2022/06/11 15:07:18;;;;;;;;;;;;;;;;;;5041183;28;20394;-76
2022/06/11 15:09:44;;;;;;;;;;;;;;;;;;5051062;28;19913;-80
2022/06/11 15:12:10;;;;;;;;;;;;;;;;;;5038938;28;19913;-79
2022/06/11 15:14:38;;;;;;;;;;;;;;;;;;5029323;28;19917;-82
2022/06/11 15:17:04;;;;;;;;;;;;;;;;;;5018722;28;20007;-79
2022/06/11 15:19:29;;;;;;;;;;;;;;;;;;5017419;28;20016;-79
2022/06/11 15:21:55;;;;;;;;;;;;;;;;;;5051130;28;19917;-77
2022/06/11 15:24:20;;;;;;;;;;;;;;;;;;5022633;28;20372;-78
2022/06/11 15:26:46;;;;;;;;;;;;;;;;;;5012284;28;19936;-78
2022/06/11 15:29:11;;;;;;;;;;;;;;;;;;5047523;28;20295;-78
2022/06/11 15:31:37;;;;;;;;;;;;;;;;;;5037391;28;20299;-78
2022/06/11 15:34:02;;;;;;;;;;;;;;;;;;5032440;28;19920;-79
2022/06/11 15:36:27;;;;;;;;;;;;;;;;;;5037928;28;20265;-80
2022/06/11 15:38:53;;;;;;;;;;;;;;;;;;5026178;28;19963;-80
2022/06/11 15:41:18;;;;;;;;;;;;;;;;;;5054099;28;20411;-79
2022/06/11 15:43:43;;;;;;;;;;;;;;;;;;5019348;28;19916;-79
2022/06/11 15:46:09;;;;;;;;;;;;;;;;;;5049653;28;19959;-78
2022/06/11 15:48:34;;;;;;;;;;;;;;;;;;5023425;28;19912;-78
2022/06/11 15:51:00;;;;;;;;;;;;;;;;;;5041842;28;19921;-78
2022/06/11 15:53:25;;;;;;;;;;;;;;;;;;5038337;28;19988;-79
2022/06/11 15:55:51;;;;;;;;;;;;;;;;;;5035917;28;19967;-79
2022/06/11 15:58:16;;;;;;;;;;;;;;;;;;5020869;28;19917;-78
2022/06/11 16:00:42;;;;;;;;;;;;;;;;;;5024480;28;19982;-78
2022/06/11 16:03:11;;;;;;;;;;;;;;;;;;5041472;28;20325;-78
2022/06/11 16:05:36;;;;;;;;;;;;;;;;;;5049776;28;19921;-76
2022/06/11 16:08:01;;;;;;;;;;;;;;;;;;5036965;28;19967;-80
2022/06/11 16:10:27;;;;;;;;;;;;;;;;;;5044769;28;19913;-77
2022/06/11 16:12:55;;;;;;;;;;;;;;;;;;5044460;28;20369;-79
2022/06/11 16:15:21;;;;;;;;;;;;;;;;;;5026320;28;20280;-90
2022/06/11 16:17:47;;;;;;;;;;;;;;;;;;5035443;28;19920;-79
2022/06/11 16:20:12;;;;;;;;;;;;;;;;;;5030991;28;20321;-78
2022/06/11 16:22:38;;;;;;;;;;;;;;;;;;5040831;28;19920;-85
2022/06/11 16:25:04;;;;;;;;;;;;;;;;;;5007847;28;19940;-78
2022/06/11 16:27:29;;;;;;;;;;;;;;;;;;5019897;28;19913;-79
2022/06/11 16:29:54;;;;;;;;;;;;;;;;;;5024682;28;19921;-88
2022/06/11 16:32:20;;;;;;;;;;;;;;;;;;5013150;28;19922;-80
2022/06/11 16:34:48;;;;;;;;;;;;;;;;;;5042189;28;19913;-79
2022/06/11 16:37:15;;;;;;;;;;;;;;;;;;5046627;28;20375;-77